createdAt,value
2018-03-26T00:00:41.147Z,93.70
2018-03-26T00:03:08.642Z,93.80
2018-03-26T00:05:36.881Z,93.80
2018-03-26T00:08:04.365Z,93.80
2018-03-26T00:10:32.622Z,94.00
2018-03-26T00:13:00.103Z,94.00
2018-03-26T00:15:28.341Z,94.20
2018-03-26T00:17:55.857Z,94.20
2018-03-26T00:20:23.317Z,94.20
2018-03-26T00:22:50.797Z,94.40
2018-03-26T00:25:18.277Z,94.50
2018-03-26T00:27:46.538Z,94.60
2018-03-26T00:30:14.021Z,94.60
2018-03-26T00:32:41.504Z,94.60
2018-03-26T00:35:09.804Z,94.80
2018-03-26T00:37:37.277Z,94.80
2018-03-26T00:40:04.757Z,94.90
2018-03-26T00:42:32.222Z,94.90
2018-03-26T00:44:59.705Z,94.90
2018-03-26T00:47:27.165Z,94.80
2018-03-26T00:49:55.402Z,94.90
2018-03-26T00:52:22.878Z,94.90
2018-03-26T00:54:50.351Z,95.00
2018-03-26T00:57:18.014Z,94.90
2018-03-26T00:59:45.485Z,95.00
2018-03-26T01:02:13.730Z,94.80
2018-03-26T01:04:41.210Z,94.80
2018-03-26T01:07:09.460Z,94.70
2018-03-26T01:09:36.921Z,94.90
2018-03-26T01:12:04.408Z,94.90
2018-03-26T01:14:32.637Z,95.00
2018-03-26T01:17:00.106Z,95.00
2018-03-26T01:19:27.585Z,95.10
2018-03-26T01:21:55.055Z,95.20
2018-03-26T01:24:23.325Z,95.40
2018-03-26T01:26:50.886Z,95.40
2018-03-26T01:29:18.371Z,95.60
2018-03-26T01:31:45.842Z,95.70
2018-03-26T01:34:13.329Z,95.90
2018-03-26T01:36:40.797Z,95.80
2018-03-26T01:39:08.277Z,95.90
2018-03-26T01:41:35.736Z,96.30
2018-03-26T01:44:03.965Z,96.80
2018-03-26T01:46:31.446Z,96.70
2018-03-26T01:48:58.913Z,96.90
2018-03-26T01:51:26.399Z,97.00
2018-03-26T01:53:54.625Z,97.40
2018-03-26T01:56:22.113Z,97.40
2018-03-26T01:58:49.577Z,97.60
2018-03-26T02:01:17.825Z,98.40
2018-03-26T02:03:45.310Z,98.10
2018-03-26T02:06:16.423Z,98.50
2018-03-26T02:08:43.896Z,98.60
2018-03-26T02:11:11.353Z,98.70
2018-03-26T02:13:38.830Z,99.10
2018-03-26T02:16:06.290Z,99.30
2018-03-26T02:18:34.537Z,99.90
2018-03-26T02:21:02.001Z,99.90
2018-03-26T02:23:29.473Z,99.90
2018-03-26T02:25:56.945Z,99.90
2018-03-26T02:28:25.185Z,99.90
2018-03-26T02:30:52.650Z,99.90
2018-03-26T02:33:20.140Z,99.90
2018-03-26T02:35:48.371Z,99.90
2018-03-26T02:38:15.831Z,99.90
2018-03-26T02:40:43.302Z,99.90
2018-03-26T02:43:10.769Z,99.90
2018-03-26T02:45:38.254Z,99.90
2018-03-26T02:48:06.481Z,99.90
2018-03-26T02:50:33.967Z,99.90
2018-03-26T02:53:02.947Z,99.90
2018-03-26T02:55:30.433Z,99.90
2018-03-26T02:57:58.665Z,99.90
2018-03-26T03:00:26.175Z,99.90
2018-03-26T03:02:54.404Z,99.90
2018-03-26T03:05:21.885Z,99.90
2018-03-26T03:07:49.373Z,99.90
2018-03-26T03:10:16.844Z,99.90
2018-03-26T03:12:44.321Z,99.90
2018-03-26T03:15:11.805Z,99.90
2018-03-26T03:17:39.378Z,99.90
2018-03-26T03:20:06.853Z,99.90
2018-03-26T03:22:35.139Z,99.90
2018-03-26T03:25:02.593Z,99.90
2018-03-26T03:27:30.821Z,99.90
2018-03-26T03:29:58.410Z,99.90
2018-03-26T03:32:25.872Z,99.90
2018-03-26T03:34:54.122Z,99.90
2018-03-26T03:37:21.593Z,99.90
2018-03-26T03:39:49.072Z,99.90
2018-03-26T03:42:17.302Z,99.90
2018-03-26T03:44:44.793Z,99.90
2018-03-26T03:47:12.258Z,99.90
2018-03-26T03:49:40.510Z,99.90
2018-03-26T03:52:07.983Z,99.90
2018-03-26T03:54:35.441Z,99.90
2018-03-26T03:57:02.925Z,99.90
2018-03-26T03:59:31.156Z,99.90
2018-03-26T04:01:58.644Z,99.90
2018-03-26T04:04:26.884Z,99.90
2018-03-26T04:06:54.366Z,99.90
2018-03-26T04:09:21.833Z,99.90
2018-03-26T04:11:50.117Z,99.90
2018-03-26T04:14:18.361Z,99.90
2018-03-26T04:16:45.851Z,99.90
2018-03-26T04:19:14.081Z,99.90
2018-03-26T04:21:41.545Z,99.90
2018-03-26T04:24:09.041Z,99.90
2018-03-26T04:26:37.273Z,99.90
2018-03-26T04:29:04.746Z,99.90
2018-03-26T04:31:32.223Z,99.90
2018-03-26T04:33:59.707Z,99.90
2018-03-26T04:36:27.206Z,99.90
2018-03-26T04:38:54.700Z,99.90
2018-03-26T04:41:22.941Z,99.90
2018-03-26T04:43:50.433Z,99.90
2018-03-26T04:46:18.675Z,99.90
2018-03-26T04:48:46.135Z,99.90
2018-03-26T04:51:13.620Z,99.90
2018-03-26T04:53:41.098Z,99.90
2018-03-26T04:56:09.345Z,99.90
2018-03-26T04:58:36.825Z,99.90
2018-03-26T05:01:05.114Z,99.90
2018-03-26T05:03:37.171Z,99.90
2018-03-26T05:06:05.425Z,99.90
2018-03-26T05:08:32.893Z,99.90
2018-03-26T05:11:00.354Z,99.90
2018-03-26T05:13:28.600Z,99.90
2018-03-26T05:15:56.070Z,99.90
2018-03-26T05:18:23.564Z,99.90
2018-03-26T05:20:51.791Z,99.90
2018-03-26T05:23:19.296Z,99.90
2018-03-26T05:25:47.522Z,99.90
2018-03-26T05:29:14.711Z,99.90
2018-03-26T05:31:42.172Z,99.90
2018-03-26T05:34:10.425Z,99.90
2018-03-26T05:36:37.904Z,99.90
2018-03-26T05:39:05.363Z,99.90
2018-03-26T05:41:33.634Z,99.90
2018-03-26T05:44:01.090Z,99.90
2018-03-26T05:46:28.569Z,99.90
2018-03-26T05:48:56.797Z,99.90
2018-03-26T05:51:24.269Z,99.90
2018-03-26T05:53:51.733Z,99.90
2018-03-26T05:56:19.222Z,99.90
2018-03-26T05:58:46.729Z,99.90
2018-03-26T06:01:14.198Z,99.90
2018-03-26T06:03:41.675Z,99.90
2018-03-26T06:06:09.134Z,99.90
2018-03-26T06:08:36.613Z,99.90
2018-03-26T06:11:04.833Z,99.90
2018-03-26T06:13:32.342Z,99.90
2018-03-26T06:16:00.570Z,99.90
2018-03-26T06:18:28.034Z,99.90
2018-03-26T06:20:55.515Z,99.90
2018-03-26T06:23:22.985Z,99.90
2018-03-26T06:25:51.225Z,99.90
2018-03-26T06:28:18.689Z,99.90
2018-03-26T06:30:46.169Z,99.90
2018-03-26T06:33:14.397Z,99.90
2018-03-26T06:35:41.881Z,99.90
2018-03-26T06:38:15.079Z,99.90
2018-03-26T06:40:42.557Z,99.90
2018-03-26T06:43:10.021Z,99.90
2018-03-26T06:45:38.253Z,99.90
2018-03-26T06:48:05.725Z,99.90
2018-03-26T06:50:33.198Z,99.90
2018-03-26T06:53:00.674Z,99.90
2018-03-26T06:55:28.907Z,99.90
2018-03-26T06:57:56.390Z,99.90
2018-03-26T07:00:23.853Z,99.90
2018-03-26T07:02:51.313Z,99.90
2018-03-26T07:05:19.570Z,99.90
2018-03-26T07:07:47.096Z,99.90
2018-03-26T07:10:14.528Z,99.90
2018-03-26T07:12:41.998Z,99.90
2018-03-26T07:15:09.499Z,99.90
2018-03-26T07:17:36.979Z,99.90
2018-03-26T07:20:05.209Z,99.90
2018-03-26T07:22:32.817Z,99.90
2018-03-26T07:25:01.050Z,99.90
2018-03-26T07:27:28.524Z,99.90
2018-03-26T07:29:56.163Z,99.90
2018-03-26T07:32:23.641Z,99.90
2018-03-26T07:34:51.109Z,99.90
2018-03-26T07:37:19.348Z,99.90
2018-03-26T07:39:46.832Z,99.90
2018-03-26T07:42:14.314Z,99.90
2018-03-26T07:44:41.797Z,99.90
2018-03-26T07:47:10.034Z,99.90
2018-03-26T07:49:37.525Z,99.90
2018-03-26T07:52:05.769Z,99.90
2018-03-26T07:54:33.234Z,99.90
2018-03-26T07:57:00.722Z,99.90
2018-03-26T07:59:29.025Z,99.90
2018-03-26T08:01:56.505Z,99.90
2018-03-26T08:04:23.973Z,99.90
2018-03-26T08:06:51.473Z,99.90
2018-03-26T08:09:19.709Z,99.90
2018-03-26T08:11:47.231Z,99.90
2018-03-26T08:14:14.706Z,99.90
2018-03-26T08:16:42.180Z,99.90
2018-03-26T08:19:09.673Z,99.90
2018-03-26T08:21:37.983Z,99.90
2018-03-26T08:24:05.544Z,99.90
2018-03-26T08:26:33.010Z,99.90
2018-03-26T08:29:00.481Z,99.90
2018-03-26T08:31:27.961Z,99.90
2018-03-26T08:33:55.429Z,99.90
2018-03-26T08:36:22.911Z,99.90
2018-03-26T08:38:51.157Z,99.90
2018-03-26T08:41:18.640Z,99.90
2018-03-26T08:43:46.887Z,99.90
2018-03-26T08:46:14.462Z,99.90
2018-03-26T08:48:41.974Z,99.90
2018-03-26T08:51:09.454Z,99.90
2018-03-26T08:53:36.936Z,99.90
2018-03-26T08:56:05.181Z,99.90
2018-03-26T08:58:32.676Z,99.90
2018-03-26T09:01:00.905Z,99.90
2018-03-26T09:03:28.375Z,99.90
2018-03-26T09:05:55.853Z,99.90
2018-03-26T09:08:23.325Z,99.90
2018-03-26T09:10:50.966Z,99.90
2018-03-26T09:13:18.432Z,99.90
2018-03-26T09:15:45.921Z,99.90
2018-03-26T09:18:14.153Z,99.90
2018-03-26T09:20:43.463Z,99.90
2018-03-26T09:23:10.945Z,99.90
2018-03-26T09:25:39.183Z,99.90
2018-03-26T09:28:06.665Z,99.90
2018-03-26T09:30:34.921Z,98.80
2018-03-26T09:33:02.501Z,98.80
2018-03-26T09:35:29.969Z,98.70
2018-03-26T09:37:58.201Z,96.60
2018-03-26T09:40:25.678Z,96.70
2018-03-26T09:42:53.141Z,96.50
2018-03-26T09:45:20.615Z,96.20
2018-03-26T09:47:48.125Z,95.30
2018-03-26T09:50:16.359Z,93.50
2018-03-26T09:52:44.593Z,93.10
2018-03-26T09:55:12.073Z,93.10
2018-03-26T09:57:39.556Z,92.20
2018-03-26T10:00:07.809Z,90.60
2018-03-26T10:02:35.289Z,90.60
2018-03-26T10:05:03.551Z,87.80
2018-03-26T10:07:31.061Z,87.60
2018-03-26T10:09:58.563Z,89.70
2018-03-26T10:12:26.054Z,90.10
2018-03-26T10:14:53.629Z,90.40
2018-03-26T10:17:21.097Z,89.80
2018-03-26T10:19:48.645Z,89.90
2018-03-26T10:22:16.873Z,87.10
2018-03-26T10:24:44.399Z,87.00
2018-03-26T10:27:11.877Z,87.90
2018-03-26T10:29:39.361Z,86.80
2018-03-26T10:32:07.589Z,77.70
2018-03-26T10:34:35.066Z,78.00
2018-03-26T10:37:02.545Z,79.00
2018-03-26T10:39:30.021Z,78.40
2018-03-26T10:41:58.317Z,80.30
2018-03-26T10:44:25.790Z,79.50
2018-03-26T10:46:53.299Z,81.00
2018-03-26T10:49:20.776Z,80.50
2018-03-26T10:51:49.054Z,74.50
2018-03-26T10:54:17.317Z,77.20
2018-03-26T10:56:45.557Z,79.00
2018-03-26T10:59:13.049Z,78.80
2018-03-26T11:01:41.278Z,79.50
2018-03-26T11:04:08.824Z,79.40
2018-03-26T11:06:36.301Z,77.30
2018-03-26T11:09:03.782Z,78.30
2018-03-26T11:11:31.238Z,78.00
2018-03-26T11:13:58.721Z,77.60
2018-03-26T11:16:26.961Z,78.80
2018-03-26T11:18:54.442Z,78.80
2018-03-26T11:21:21.960Z,77.00
2018-03-26T11:23:49.424Z,76.10
2018-03-26T11:26:16.968Z,76.20
2018-03-26T11:28:44.433Z,74.10
2018-03-26T11:31:11.912Z,73.90
2018-03-26T11:33:39.370Z,73.50
2018-03-26T11:36:06.874Z,72.60
2018-03-26T11:38:35.119Z,70.30
2018-03-26T11:41:02.591Z,70.30
2018-03-26T11:43:30.069Z,67.30
2018-03-26T11:45:58.326Z,68.10
2018-03-26T11:48:26.605Z,69.30
2018-03-26T11:50:54.841Z,70.10
2018-03-26T11:53:22.341Z,70.00
2018-03-26T11:55:50.584Z,71.30
2018-03-26T11:58:18.102Z,71.30
2018-03-26T12:00:45.581Z,73.30
2018-03-26T12:03:13.073Z,72.10
2018-03-26T12:05:40.643Z,70.60
2018-03-26T12:08:08.113Z,72.00
2018-03-26T12:10:36.427Z,71.70
2018-03-26T12:13:03.963Z,71.70
2018-03-26T12:15:31.401Z,72.00
2018-03-26T12:18:00.593Z,71.00
2018-03-26T12:20:39.891Z,70.30
2018-03-26T12:23:19.222Z,69.10
2018-03-26T12:25:46.773Z,70.90
2018-03-26T12:28:26.073Z,70.10
2018-03-26T12:30:54.313Z,71.60
2018-03-26T12:33:21.785Z,71.60
2018-03-26T12:35:59.878Z,69.60
2018-03-26T12:38:27.338Z,67.00
2018-03-26T12:40:55.565Z,67.40
2018-03-26T12:43:23.040Z,64.80
2018-03-26T12:46:02.605Z,67.00
2018-03-26T12:48:30.068Z,69.50
2018-03-26T12:51:09.501Z,69.90
2018-03-26T12:53:36.969Z,69.90
2018-03-26T12:56:04.445Z,63.60
2018-03-26T12:58:45.397Z,65.90
2018-03-26T13:01:24.803Z,66.50
2018-03-26T13:03:52.278Z,63.70
2018-03-26T13:06:19.758Z,61.70
2018-03-26T13:08:47.236Z,65.20
2018-03-26T13:11:15.498Z,58.20
2018-03-26T13:13:42.993Z,58.10
2018-03-26T13:16:10.439Z,58.00
2018-03-26T13:18:38.670Z,60.60
2018-03-26T13:21:06.177Z,60.50
2018-03-26T13:23:34.417Z,60.00
2018-03-26T13:26:01.877Z,60.00
2018-03-26T13:28:29.361Z,60.50
2018-03-26T13:30:57.597Z,64.80
2018-03-26T13:33:25.084Z,64.60
2018-03-26T13:35:52.541Z,65.40
2018-03-26T13:38:20.023Z,65.60
2018-03-26T13:40:48.257Z,65.00
2018-03-26T13:43:15.733Z,65.00
2018-03-26T13:45:43.197Z,65.00
2018-03-26T13:48:11.449Z,62.30
2018-03-26T13:50:38.938Z,62.30
2018-03-26T13:53:07.184Z,63.10
2018-03-26T13:55:34.661Z,63.10
2018-03-26T13:58:02.889Z,62.90
2018-03-26T14:00:30.375Z,63.00
2018-03-26T14:02:57.857Z,61.10
2018-03-26T14:05:26.121Z,61.50
2018-03-26T14:07:53.590Z,61.50
2018-03-26T14:10:33.790Z,57.20
2018-03-26T14:13:13.117Z,57.10
2018-03-26T14:15:53.182Z,58.70
2018-03-26T14:18:20.653Z,58.00
2018-03-26T14:20:48.122Z,58.80
2018-03-26T14:23:15.602Z,58.60
2018-03-26T14:25:43.078Z,59.90
2018-03-26T14:28:11.326Z,60.30
2018-03-26T14:30:38.801Z,60.10
2018-03-26T14:33:07.092Z,63.50
2018-03-26T14:35:43.716Z,63.40
2018-03-26T14:38:11.189Z,63.20
2018-03-26T14:40:38.665Z,64.50
2018-03-26T14:43:06.907Z,64.70
2018-03-26T14:45:34.377Z,64.70
2018-03-26T14:48:01.865Z,64.00
2018-03-26T14:50:30.117Z,63.80
2018-03-26T14:52:57.597Z,63.80
2018-03-26T14:55:25.108Z,62.20
2018-03-26T14:57:52.580Z,62.00
2018-03-26T15:00:20.069Z,61.10
2018-03-26T15:02:47.604Z,59.50
2018-03-26T15:05:15.025Z,58.00
2018-03-26T15:07:42.501Z,59.30
2018-03-26T15:10:09.977Z,60.80
2018-03-26T15:12:37.537Z,61.80
2018-03-26T15:15:04.973Z,62.40
2018-03-26T15:17:32.437Z,63.20
2018-03-26T15:20:00.005Z,63.00
2018-03-26T15:22:27.474Z,62.70
2018-03-26T15:24:54.957Z,62.10
2018-03-26T15:27:23.203Z,59.70
2018-03-26T15:29:50.676Z,59.70
2018-03-26T15:32:18.150Z,59.50
2018-03-26T15:34:46.429Z,61.10
2018-03-26T15:37:14.686Z,61.80
2018-03-26T15:39:42.155Z,61.70
2018-03-26T15:42:09.713Z,60.60
2018-03-26T15:44:37.321Z,59.40
2018-03-26T15:47:05.579Z,58.80
2018-03-26T15:49:33.093Z,58.70
2018-03-26T15:52:00.557Z,55.90
2018-03-26T15:54:28.049Z,58.10
2018-03-26T15:56:56.355Z,59.80
2018-03-26T15:59:23.833Z,59.80
2018-03-26T16:01:51.301Z,57.90
2018-03-26T16:04:18.777Z,58.50
2018-03-26T16:06:46.237Z,56.10
2018-03-26T16:09:13.740Z,57.30
2018-03-26T16:11:41.233Z,59.60
2018-03-26T16:14:08.704Z,61.60
2018-03-26T16:16:36.183Z,63.10
2018-03-26T16:19:04.416Z,60.50
2018-03-26T16:21:31.893Z,60.50
2018-03-26T16:23:59.353Z,59.80
2018-03-26T16:26:26.813Z,59.40
2018-03-26T16:28:54.309Z,56.80
2018-03-26T16:31:21.807Z,56.90
2018-03-26T16:33:49.281Z,57.90
2018-03-26T16:36:16.749Z,58.50
2018-03-26T16:38:44.242Z,59.50
2018-03-26T16:41:11.717Z,61.30
2018-03-26T16:43:39.230Z,62.10
2018-03-26T16:46:06.718Z,63.30
2018-03-26T16:48:34.298Z,64.50
2018-03-26T16:51:01.794Z,65.90
2018-03-26T16:53:29.304Z,66.40
2018-03-26T16:55:56.793Z,65.80
2018-03-26T16:58:24.263Z,66.00
2018-03-26T17:00:51.728Z,65.80
2018-03-26T17:03:19.205Z,65.90
2018-03-26T17:05:47.449Z,66.50
2018-03-26T17:08:14.929Z,66.40
2018-03-26T17:10:42.406Z,67.40
2018-03-26T17:13:10.665Z,70.50
2018-03-26T17:15:38.142Z,70.50
2018-03-26T17:18:06.393Z,71.20
2018-03-26T17:20:33.850Z,71.20
2018-03-26T17:23:01.543Z,71.70
2018-03-26T17:25:29.009Z,72.00
2018-03-26T17:27:56.520Z,72.50
2018-03-26T17:30:24.078Z,73.00
2018-03-26T17:32:51.625Z,73.00
2018-03-26T17:35:19.139Z,73.50
2018-03-26T17:37:46.634Z,74.00
2018-03-26T17:41:04.981Z,73.10
2018-03-26T17:43:32.533Z,72.40
2018-03-26T17:46:00.030Z,72.90
2018-03-26T17:48:27.493Z,73.00
2018-03-26T17:50:55.282Z,73.30
2018-03-26T17:53:23.545Z,74.00
2018-03-26T17:55:51.006Z,73.90
2018-03-26T17:58:18.530Z,74.40
2018-03-26T18:00:46.183Z,73.80
2018-03-26T18:03:13.689Z,73.50
2018-03-26T18:05:42.935Z,74.70
2018-03-26T18:08:10.419Z,74.00
2018-03-26T18:10:37.894Z,74.40
2018-03-26T18:13:06.189Z,74.30
2018-03-26T18:15:34.429Z,74.10
2018-03-26T18:18:01.935Z,74.00
2018-03-26T18:20:30.205Z,73.60
2018-03-26T18:22:57.708Z,73.50
2018-03-26T18:25:25.181Z,73.50
2018-03-26T18:27:52.734Z,73.80
2018-03-26T18:30:20.229Z,74.00
2018-03-26T18:32:48.474Z,74.70
2018-03-26T18:35:16.909Z,74.60
2018-03-26T18:37:44.407Z,74.70
2018-03-26T18:40:11.863Z,74.60
2018-03-26T18:42:39.384Z,74.50
2018-03-26T18:45:06.865Z,74.70
2018-03-26T18:47:34.353Z,74.70
2018-03-26T18:50:01.830Z,73.90
2018-03-26T18:52:29.508Z,72.90
2018-03-26T18:54:57.750Z,71.90
2018-03-26T18:57:25.224Z,71.90
2018-03-26T18:59:52.705Z,73.10
2018-03-26T19:02:20.201Z,74.30
2018-03-26T19:04:47.789Z,74.50
2018-03-26T19:07:15.245Z,75.10
2018-03-26T19:09:42.726Z,74.20
2018-03-26T19:12:10.289Z,73.70
2018-03-26T19:14:38.529Z,72.30
2018-03-26T19:17:06.021Z,72.20
2018-03-26T19:19:34.261Z,72.10
2018-03-26T19:22:01.734Z,72.00
2018-03-26T19:24:30.034Z,72.50
2018-03-26T19:26:58.285Z,72.50
2018-03-26T19:29:25.771Z,72.40
2018-03-26T19:31:54.017Z,72.80
2018-03-26T19:34:21.504Z,72.80
2018-03-26T19:36:49.733Z,72.10
2018-03-26T19:39:17.210Z,71.90
2018-03-26T19:41:44.673Z,72.50
2018-03-26T19:44:12.150Z,72.30
2018-03-26T19:46:40.398Z,72.80
2018-03-26T19:49:07.905Z,72.80
2018-03-26T19:51:35.390Z,72.80
2018-03-26T19:54:02.850Z,72.40
2018-03-26T19:56:30.341Z,73.30
2018-03-26T19:58:57.936Z,73.10
2018-03-26T20:01:26.182Z,73.10
2018-03-26T20:03:53.646Z,73.10
2018-03-26T20:06:21.129Z,73.50
2018-03-26T20:08:49.372Z,75.00
2018-03-26T20:11:16.859Z,75.00
2018-03-26T20:13:45.094Z,78.00
2018-03-26T20:16:12.628Z,77.90
2018-03-26T20:18:40.114Z,79.50
2018-03-26T20:21:07.589Z,82.30
2018-03-26T20:23:35.883Z,84.90
2018-03-26T20:26:04.130Z,87.10
2018-03-26T20:28:31.625Z,87.00
2018-03-26T20:30:59.161Z,88.50
2018-03-26T20:33:26.640Z,90.00
2018-03-26T20:35:54.878Z,90.50
2018-03-26T20:38:22.385Z,90.50
2018-03-26T20:40:49.845Z,90.70
2018-03-26T20:43:17.302Z,90.80
2018-03-26T20:45:44.823Z,91.00
2018-03-26T20:48:12.294Z,90.90
2018-03-26T20:50:39.782Z,90.90
2018-03-26T20:53:07.248Z,91.10
2018-03-26T20:55:34.738Z,90.90
2018-03-26T20:58:02.226Z,90.90
2018-03-26T21:00:30.549Z,91.50
2018-03-26T21:02:58.025Z,91.40
2018-03-26T21:05:25.556Z,91.60
2018-03-26T21:07:52.990Z,91.60
2018-03-26T21:10:21.221Z,92.00
2018-03-26T21:12:48.750Z,91.90
2018-03-26T21:15:16.218Z,92.10
2018-03-26T21:17:43.701Z,92.10
2018-03-26T21:20:11.186Z,92.30
2018-03-26T21:22:39.475Z,92.90
2018-03-26T21:25:06.970Z,92.90
2018-03-26T21:27:34.431Z,93.10
2018-03-26T21:30:01.957Z,93.20
2018-03-26T21:32:29.438Z,93.40
2018-03-26T21:34:58.427Z,93.40
2018-03-26T21:37:29.011Z,93.50
2018-03-26T21:39:56.481Z,93.50
2018-03-26T21:42:23.976Z,93.60
2018-03-26T21:44:51.462Z,93.60
2018-03-26T21:47:18.954Z,93.50
2018-03-26T21:49:46.416Z,93.50
2018-03-26T21:52:13.994Z,93.70
2018-03-26T21:54:42.245Z,93.40
2018-03-26T21:57:09.697Z,93.40
2018-03-26T21:59:37.170Z,93.40
2018-03-26T22:02:05.405Z,93.60
2018-03-26T22:04:32.886Z,93.60
2018-03-26T22:07:00.348Z,93.60
2018-03-26T22:09:27.826Z,93.80
2018-03-26T22:11:56.082Z,94.00
2018-03-26T22:14:24.333Z,94.20
2018-03-26T22:16:51.799Z,94.20
2018-03-26T22:19:19.940Z,94.20
2018-03-26T22:21:47.414Z,94.40
2018-03-26T22:24:15.893Z,94.70
2018-03-26T22:26:43.365Z,94.80
2018-03-26T22:29:10.843Z,94.70
2018-03-26T22:31:39.122Z,95.10
2018-03-26T22:34:06.601Z,95.10
2018-03-26T22:36:34.858Z,95.10
2018-03-26T22:39:02.325Z,95.20
2018-03-26T22:41:29.807Z,95.30
2018-03-26T22:43:57.286Z,95.30
2018-03-26T22:46:24.753Z,95.30
2018-03-26T22:48:52.230Z,95.30
2018-03-26T22:51:19.701Z,95.20
2018-03-26T22:53:47.989Z,95.20
2018-03-26T22:56:15.456Z,95.20
2018-03-26T22:58:43.774Z,95.50
2018-03-26T23:01:11.259Z,95.50
2018-03-26T23:03:38.729Z,95.60
2018-03-26T23:06:06.217Z,95.70
2018-03-26T23:08:34.450Z,95.90
2018-03-26T23:11:01.945Z,95.90
2018-03-26T23:13:30.214Z,96.30
2018-03-26T23:15:57.701Z,96.30
2018-03-26T23:18:25.184Z,96.40
2018-03-26T23:20:53.025Z,96.60
2018-03-26T23:23:20.499Z,96.50
2018-03-26T23:25:47.979Z,96.80
2018-03-26T23:28:15.461Z,97.40
2018-03-26T23:30:42.920Z,97.40
2018-03-26T23:33:10.403Z,97.70
2018-03-26T23:35:38.654Z,97.90
2018-03-26T23:38:06.129Z,97.90
2018-03-26T23:40:34.362Z,98.50
2018-03-26T23:43:01.898Z,98.50
2018-03-26T23:45:29.365Z,98.50
2018-03-26T23:47:56.833Z,98.60
2018-03-26T23:50:24.313Z,98.80
2018-03-26T23:52:51.806Z,99.00
2018-03-26T23:55:19.301Z,99.10
2018-03-26T23:57:46.777Z,99.20
